sensor_id;sensor_type;location;lat;lon;timestamp;P1;durP1;ratioP1;P2;durP2;ratioP2
69305;SDS011;56427;51.580;4.656;2023-02-10T00:02:20;166.40;;;31.63;;
69305;SDS011;56427;51.580;4.656;2023-02-10T00:04:46;102.55;;;28.17;;
69305;SDS011;56427;51.580;4.656;2023-02-10T00:07:12;107.00;;;31.07;;
69305;SDS011;56427;51.580;4.656;2023-02-10T00:09:37;119.13;;;29.43;;
69305;SDS011;56427;51.580;4.656;2023-02-10T00:12:03;141.30;;;32.45;;
69305;SDS011;56427;51.580;4.656;2023-02-10T00:14:29;159.43;;;33.30;;
69305;SDS011;56427;51.580;4.656;2023-02-10T00:16:54;69.82;;;27.08;;
69305;SDS011;56427;51.580;4.656;2023-02-10T00:19:22;91.65;;;27.38;;
69305;SDS011;56427;51.580;4.656;2023-02-10T00:21:49;168.82;;;31.02;;
69305;SDS011;56427;51.580;4.656;2023-02-10T00:24:15;235.10;;;35.95;;
69305;SDS011;56427;51.580;4.656;2023-02-10T00:26:40;90.43;;;28.10;;
69305;SDS011;56427;51.580;4.656;2023-02-10T00:29:05;128.73;;;29.80;;
69305;SDS011;56427;51.580;4.656;2023-02-10T00:31:31;162.02;;;32.05;;
69305;SDS011;56427;51.580;4.656;2023-02-10T00:33:56;160.97;;;28.20;;
69305;SDS011;56427;51.580;4.656;2023-02-10T00:36:22;71.53;;;23.07;;
69305;SDS011;56427;51.580;4.656;2023-02-10T00:38:50;68.80;;;22.10;;
69305;SDS011;56427;51.580;4.656;2023-02-10T00:41:17;58.28;;;22.92;;
69305;SDS011;56427;51.580;4.656;2023-02-10T00:43:44;76.33;;;25.27;;
69305;SDS011;56427;51.580;4.656;2023-02-10T00:46:11;50.95;;;23.42;;
69305;SDS011;56427;51.580;4.656;2023-02-10T00:48:37;120.00;;;30.95;;
69305;SDS011;56427;51.580;4.656;2023-02-10T00:51:02;116.50;;;29.57;;
69305;SDS011;56427;51.580;4.656;2023-02-10T00:53:28;44.78;;;22.20;;
69305;SDS011;56427;51.580;4.656;2023-02-10T00:55:53;61.22;;;25.02;;
69305;SDS011;56427;51.580;4.656;2023-02-10T00:58:18;49.73;;;24.27;;
69305;SDS011;56427;51.580;4.656;2023-02-10T01:00:44;49.07;;;24.13;;
69305;SDS011;56427;51.580;4.656;2023-02-10T01:03:09;60.03;;;23.43;;
69305;SDS011;56427;51.580;4.656;2023-02-10T01:05:35;78.27;;;27.90;;
69305;SDS011;56427;51.580;4.656;2023-02-10T01:08:01;57.33;;;24.70;;
69305;SDS011;56427;51.580;4.656;2023-02-10T01:10:26;67.90;;;25.93;;
69305;SDS011;56427;51.580;4.656;2023-02-10T01:12:52;48.88;;;23.38;;
69305;SDS011;56427;51.580;4.656;2023-02-10T01:15:18;57.97;;;26.77;;
69305;SDS011;56427;51.580;4.656;2023-02-10T01:17:43;47.63;;;21.90;;
69305;SDS011;56427;51.580;4.656;2023-02-10T01:20:09;44.07;;;22.87;;
69305;SDS011;56427;51.580;4.656;2023-02-10T01:22:35;44.87;;;22.53;;
69305;SDS011;56427;51.580;4.656;2023-02-10T01:25:01;45.53;;;23.25;;
69305;SDS011;56427;51.580;4.656;2023-02-10T01:27:26;48.10;;;24.03;;
69305;SDS011;56427;51.580;4.656;2023-02-10T01:29:52;69.18;;;26.83;;
69305;SDS011;56427;51.580;4.656;2023-02-10T01:32:18;49.87;;;24.50;;
69305;SDS011;56427;51.580;4.656;2023-02-10T01:34:43;53.63;;;23.93;;
69305;SDS011;56427;51.580;4.656;2023-02-10T01:37:09;44.15;;;23.23;;
69305;SDS011;56427;51.580;4.656;2023-02-10T01:39:34;54.10;;;25.17;;
69305;SDS011;56427;51.580;4.656;2023-02-10T01:42:00;44.03;;;23.97;;
69305;SDS011;56427;51.580;4.656;2023-02-10T01:46:52;77.27;;;26.60;;
69305;SDS011;56427;51.580;4.656;2023-02-10T01:49:20;82.05;;;25.67;;
69305;SDS011;56427;51.580;4.656;2023-02-10T01:54:20;64.83;;;24.60;;
69305;SDS011;56427;51.580;4.656;2023-02-10T01:56:51;45.03;;;21.52;;
69305;SDS011;56427;51.580;4.656;2023-02-10T01:59:18;105.22;;;28.08;;
69305;SDS011;56427;51.580;4.656;2023-02-10T02:01:45;95.03;;;26.52;;
69305;SDS011;56427;51.580;4.656;2023-02-10T02:04:12;92.15;;;27.30;;
69305;SDS011;56427;51.580;4.656;2023-02-10T02:06:37;78.00;;;25.77;;
69305;SDS011;56427;51.580;4.656;2023-02-10T02:09:03;122.05;;;30.13;;
69305;SDS011;56427;51.580;4.656;2023-02-10T02:11:49;129.48;;;31.98;;
69305;SDS011;56427;51.580;4.656;2023-02-10T02:14:20;81.63;;;26.00;;
69305;SDS011;56427;51.580;4.656;2023-02-10T02:22:53;74.07;;;24.20;;
69305;SDS011;56427;51.580;4.656;2023-02-10T02:33:52;458.92;;;52.28;;
69305;SDS011;56427;51.580;4.656;2023-02-10T02:39:26;382.33;;;47.65;;
69305;SDS011;56427;51.580;4.656;2023-02-10T02:53:26;271.13;;;40.00;;
69305;SDS011;56427;51.580;4.656;2023-02-10T02:56:20;270.63;;;41.47;;
69305;SDS011;56427;51.580;4.656;2023-02-10T02:59:07;253.80;;;43.33;;
69305;SDS011;56427;51.580;4.656;2023-02-10T03:01:35;140.65;;;32.78;;
69305;SDS011;56427;51.580;4.656;2023-02-10T03:04:04;235.65;;;38.10;;
69305;SDS011;56427;51.580;4.656;2023-02-10T03:06:31;403.80;;;52.72;;
69305;SDS011;56427;51.580;4.656;2023-02-10T03:08:56;101.40;;;32.53;;
69305;SDS011;56427;51.580;4.656;2023-02-10T03:11:22;367.40;;;51.47;;
69305;SDS011;56427;51.580;4.656;2023-02-10T03:13:47;153.85;;;36.88;;
69305;SDS011;56427;51.580;4.656;2023-02-10T03:16:12;382.30;;;54.90;;
69305;SDS011;56427;51.580;4.656;2023-02-10T03:18:38;308.93;;;49.87;;
69305;SDS011;56427;51.580;4.656;2023-02-10T03:21:03;333.23;;;53.13;;
69305;SDS011;56427;51.580;4.656;2023-02-10T03:23:29;210.02;;;42.03;;
69305;SDS011;56427;51.580;4.656;2023-02-10T03:25:56;199.83;;;41.23;;
69305;SDS011;56427;51.580;4.656;2023-02-10T03:28:23;206.80;;;43.83;;
69305;SDS011;56427;51.580;4.656;2023-02-10T03:30:48;348.17;;;55.80;;
69305;SDS011;56427;51.580;4.656;2023-02-10T03:33:15;313.42;;;53.92;;
69305;SDS011;56427;51.580;4.656;2023-02-10T03:35:42;328.88;;;50.58;;
69305;SDS011;56427;51.580;4.656;2023-02-10T03:38:09;255.23;;;46.75;;
69305;SDS011;56427;51.580;4.656;2023-02-10T03:40:35;305.35;;;50.03;;
69305;SDS011;56427;51.580;4.656;2023-02-10T03:43:02;297.23;;;50.97;;
69305;SDS011;56427;51.580;4.656;2023-02-10T03:45:27;399.02;;;57.15;;
69305;SDS011;56427;51.580;4.656;2023-02-10T03:47:52;375.17;;;60.23;;
69305;SDS011;56427;51.580;4.656;2023-02-10T03:50:18;251.47;;;45.43;;
69305;SDS011;56427;51.580;4.656;2023-02-10T03:52:43;256.80;;;48.83;;
69305;SDS011;56427;51.580;4.656;2023-02-10T03:55:08;152.50;;;42.00;;
69305;SDS011;56427;51.580;4.656;2023-02-10T03:57:33;317.10;;;52.60;;
69305;SDS011;56427;51.580;4.656;2023-02-10T03:59:59;407.73;;;62.08;;
69305;SDS011;56427;51.580;4.656;2023-02-10T04:02:25;439.87;;;62.93;;
69305;SDS011;56427;51.580;4.656;2023-02-10T04:04:51;333.98;;;53.47;;
69305;SDS011;56427;51.580;4.656;2023-02-10T04:07:16;336.20;;;53.43;;
69305;SDS011;56427;51.580;4.656;2023-02-10T04:09:42;537.00;;;70.73;;
69305;SDS011;56427;51.580;4.656;2023-02-10T04:12:07;291.45;;;54.42;;
69305;SDS011;56427;51.580;4.656;2023-02-10T04:14:33;579.27;;;78.27;;
69305;SDS011;56427;51.580;4.656;2023-02-10T04:16:58;369.63;;;58.70;;
69305;SDS011;56427;51.580;4.656;2023-02-10T04:19:25;489.63;;;72.63;;
69305;SDS011;56427;51.580;4.656;2023-02-10T04:21:50;458.73;;;70.10;;
69305;SDS011;56427;51.580;4.656;2023-02-10T04:24:15;479.57;;;64.57;;
69305;SDS011;56427;51.580;4.656;2023-02-10T04:26:41;231.77;;;48.40;;
69305;SDS011;56427;51.580;4.656;2023-02-10T04:29:06;187.87;;;45.23;;
69305;SDS011;56427;51.580;4.656;2023-02-10T04:31:31;156.73;;;43.23;;
69305;SDS011;56427;51.580;4.656;2023-02-10T04:33:56;355.70;;;53.23;;
69305;SDS011;56427;51.580;4.656;2023-02-10T04:36:22;299.92;;;48.70;;
69305;SDS011;56427;51.580;4.656;2023-02-10T04:38:47;514.57;;;66.47;;
69305;SDS011;56427;51.580;4.656;2023-02-10T04:41:13;495.67;;;67.13;;
69305;SDS011;56427;51.580;4.656;2023-02-10T04:43:38;407.60;;;55.30;;
69305;SDS011;56427;51.580;4.656;2023-02-10T04:46:03;546.90;;;69.67;;
69305;SDS011;56427;51.580;4.656;2023-02-10T04:48:29;651.87;;;80.37;;
69305;SDS011;56427;51.580;4.656;2023-02-10T04:50:55;359.27;;;57.80;;
69305;SDS011;56427;51.580;4.656;2023-02-10T04:53:20;248.90;;;48.20;;
69305;SDS011;56427;51.580;4.656;2023-02-10T04:55:46;529.40;;;72.22;;
69305;SDS011;56427;51.580;4.656;2023-02-10T04:58:12;469.27;;;63.00;;
69305;SDS011;56427;51.580;4.656;2023-02-10T05:00:37;248.73;;;49.90;;
69305;SDS011;56427;51.580;4.656;2023-02-10T05:03:02;387.98;;;56.60;;
69305;SDS011;56427;51.580;4.656;2023-02-10T05:05:28;323.03;;;52.60;;
69305;SDS011;56427;51.580;4.656;2023-02-10T05:07:53;314.20;;;54.87;;
69305;SDS011;56427;51.580;4.656;2023-02-10T05:10:19;198.63;;;44.03;;
69305;SDS011;56427;51.580;4.656;2023-02-10T05:12:45;384.05;;;57.42;;
69305;SDS011;56427;51.580;4.656;2023-02-10T05:15:10;161.30;;;41.67;;
69305;SDS011;56427;51.580;4.656;2023-02-10T05:17:37;160.18;;;42.95;;
69305;SDS011;56427;51.580;4.656;2023-02-10T05:20:03;168.43;;;42.67;;
69305;SDS011;56427;51.580;4.656;2023-02-10T05:22:30;115.03;;;37.35;;
69305;SDS011;56427;51.580;4.656;2023-02-10T05:24:55;236.10;;;50.33;;
69305;SDS011;56427;51.580;4.656;2023-02-10T05:27:22;315.23;;;55.15;;
69305;SDS011;56427;51.580;4.656;2023-02-10T05:29:48;258.63;;;52.42;;
69305;SDS011;56427;51.580;4.656;2023-02-10T05:32:14;373.80;;;59.53;;
69305;SDS011;56427;51.580;4.656;2023-02-10T05:34:39;167.47;;;41.00;;
69305;SDS011;56427;51.580;4.656;2023-02-10T05:37:04;192.65;;;44.78;;
69305;SDS011;56427;51.580;4.656;2023-02-10T05:39:30;141.48;;;40.55;;
69305;SDS011;56427;51.580;4.656;2023-02-10T05:41:56;171.80;;;41.00;;
69305;SDS011;56427;51.580;4.656;2023-02-10T05:44:23;234.90;;;43.00;;
69305;SDS011;56427;51.580;4.656;2023-02-10T05:46:49;201.98;;;43.92;;
69305;SDS011;56427;51.580;4.656;2023-02-10T05:49:15;163.18;;;40.40;;
69305;SDS011;56427;51.580;4.656;2023-02-10T05:51:41;234.82;;;46.25;;
69305;SDS011;56427;51.580;4.656;2023-02-10T05:54:07;396.83;;;62.43;;
69305;SDS011;56427;51.580;4.656;2023-02-10T05:56:33;311.92;;;49.08;;
69305;SDS011;56427;51.580;4.656;2023-02-10T05:58:59;323.23;;;54.70;;
69305;SDS011;56427;51.580;4.656;2023-02-10T06:01:24;235.67;;;43.60;;
69305;SDS011;56427;51.580;4.656;2023-02-10T06:03:50;280.43;;;47.87;;
69305;SDS011;56427;51.580;4.656;2023-02-10T06:06:15;406.93;;;62.37;;
69305;SDS011;56427;51.580;4.656;2023-02-10T06:08:41;192.45;;;41.67;;
69305;SDS011;56427;51.580;4.656;2023-02-10T06:11:07;312.30;;;51.27;;
69305;SDS011;56427;51.580;4.656;2023-02-10T06:13:32;293.10;;;49.43;;
69305;SDS011;56427;51.580;4.656;2023-02-10T06:15:58;226.88;;;42.47;;
69305;SDS011;56427;51.580;4.656;2023-02-10T06:18:23;353.23;;;52.90;;
69305;SDS011;56427;51.580;4.656;2023-02-10T06:20:49;146.33;;;37.13;;
69305;SDS011;56427;51.580;4.656;2023-02-10T06:23:16;237.27;;;42.28;;
69305;SDS011;56427;51.580;4.656;2023-02-10T06:25:42;393.77;;;58.13;;
69305;SDS011;56427;51.580;4.656;2023-02-10T06:28:08;288.03;;;48.70;;
69305;SDS011;56427;51.580;4.656;2023-02-10T06:30:33;340.52;;;53.03;;
69305;SDS011;56427;51.580;4.656;2023-02-10T06:32:59;240.47;;;42.03;;
69305;SDS011;56427;51.580;4.656;2023-02-10T06:35:24;252.67;;;44.67;;
69305;SDS011;56427;51.580;4.656;2023-02-10T06:37:50;178.13;;;38.40;;
69305;SDS011;56427;51.580;4.656;2023-02-10T06:40:15;252.93;;;43.47;;
69305;SDS011;56427;51.580;4.656;2023-02-10T06:42:41;300.40;;;45.45;;
69305;SDS011;56427;51.580;4.656;2023-02-10T06:45:06;417.50;;;54.03;;
69305;SDS011;56427;51.580;4.656;2023-02-10T06:47:33;332.42;;;45.58;;
69305;SDS011;56427;51.580;4.656;2023-02-10T06:49:59;306.08;;;45.63;;
69305;SDS011;56427;51.580;4.656;2023-02-10T06:52:24;215.17;;;40.50;;
69305;SDS011;56427;51.580;4.656;2023-02-10T06:54:51;189.13;;;38.45;;
69305;SDS011;56427;51.580;4.656;2023-02-10T06:57:17;317.93;;;47.33;;
69305;SDS011;56427;51.580;4.656;2023-02-10T06:59:42;291.92;;;45.95;;
69305;SDS011;56427;51.580;4.656;2023-02-10T07:02:08;348.20;;;47.27;;
69305;SDS011;56427;51.580;4.656;2023-02-10T07:04:36;278.90;;;43.07;;
69305;SDS011;56427;51.580;4.656;2023-02-10T07:07:01;416.92;;;52.92;;
69305;SDS011;56427;51.580;4.656;2023-02-10T07:09:27;268.17;;;44.75;;
69305;SDS011;56427;51.580;4.656;2023-02-10T07:11:53;486.52;;;53.65;;
69305;SDS011;56427;51.580;4.656;2023-02-10T07:14:19;236.38;;;40.90;;
69305;SDS011;56427;51.580;4.656;2023-02-10T07:16:45;453.10;;;53.22;;
69305;SDS011;56427;51.580;4.656;2023-02-10T07:19:10;227.50;;;38.93;;
69305;SDS011;56427;51.580;4.656;2023-02-10T07:21:35;335.45;;;47.63;;
69305;SDS011;56427;51.580;4.656;2023-02-10T07:24:03;271.63;;;43.90;;
69305;SDS011;56427;51.580;4.656;2023-02-10T07:26:28;250.75;;;44.40;;
69305;SDS011;56427;51.580;4.656;2023-02-10T07:28:54;484.63;;;52.80;;
69305;SDS011;56427;51.580;4.656;2023-02-10T07:31:19;603.10;;;62.43;;
69305;SDS011;56427;51.580;4.656;2023-02-10T07:33:44;406.77;;;51.37;;
69305;SDS011;56427;51.580;4.656;2023-02-10T07:36:10;295.47;;;44.03;;
69305;SDS011;56427;51.580;4.656;2023-02-10T07:38:35;410.60;;;50.13;;
69305;SDS011;56427;51.580;4.656;2023-02-10T07:41:02;457.30;;;55.37;;
69305;SDS011;56427;51.580;4.656;2023-02-10T07:43:28;518.47;;;59.75;;
69305;SDS011;56427;51.580;4.656;2023-02-10T07:45:54;447.05;;;56.28;;
69305;SDS011;56427;51.580;4.656;2023-02-10T07:48:19;609.47;;;68.90;;
69305;SDS011;56427;51.580;4.656;2023-02-10T07:50:46;597.23;;;63.70;;
69305;SDS011;56427;51.580;4.656;2023-02-10T07:53:12;313.30;;;45.97;;
69305;SDS011;56427;51.580;4.656;2023-02-10T07:55:37;499.47;;;61.17;;
69305;SDS011;56427;51.580;4.656;2023-02-10T07:58:04;298.20;;;47.65;;
69305;SDS011;56427;51.580;4.656;2023-02-10T08:00:30;437.80;;;53.80;;
69305;SDS011;56427;51.580;4.656;2023-02-10T08:02:55;377.92;;;54.60;;
69305;SDS011;56427;51.580;4.656;2023-02-10T08:05:21;679.90;;;69.13;;
69305;SDS011;56427;51.580;4.656;2023-02-10T08:07:47;288.13;;;48.45;;
69305;SDS011;56427;51.580;4.656;2023-02-10T08:10:13;604.38;;;63.90;;
69305;SDS011;56427;51.580;4.656;2023-02-10T08:12:38;551.90;;;62.20;;
69305;SDS011;56427;51.580;4.656;2023-02-10T08:15:05;300.37;;;49.23;;
69305;SDS011;56427;51.580;4.656;2023-02-10T08:17:31;292.27;;;46.53;;
69305;SDS011;56427;51.580;4.656;2023-02-10T08:19:57;463.57;;;58.47;;
69305;SDS011;56427;51.580;4.656;2023-02-10T08:22:22;515.80;;;59.67;;
69305;SDS011;56427;51.580;4.656;2023-02-10T08:24:48;556.93;;;62.60;;
69305;SDS011;56427;51.580;4.656;2023-02-10T08:27:13;482.48;;;58.90;;
69305;SDS011;56427;51.580;4.656;2023-02-10T08:29:38;498.40;;;59.07;;
69305;SDS011;56427;51.580;4.656;2023-02-10T08:32:04;293.17;;;48.63;;
69305;SDS011;56427;51.580;4.656;2023-02-10T08:34:29;287.00;;;48.97;;
69305;SDS011;56427;51.580;4.656;2023-02-10T08:36:54;529.93;;;63.07;;
69305;SDS011;56427;51.580;4.656;2023-02-10T08:39:20;288.40;;;49.57;;
69305;SDS011;56427;51.580;4.656;2023-02-10T08:41:46;262.20;;;45.83;;
69305;SDS011;56427;51.580;4.656;2023-02-10T08:44:12;488.10;;;63.03;;
69305;SDS011;56427;51.580;4.656;2023-02-10T08:46:38;555.30;;;66.25;;
69305;SDS011;56427;51.580;4.656;2023-02-10T08:49:04;504.53;;;60.27;;
69305;SDS011;56427;51.580;4.656;2023-02-10T08:51:29;223.18;;;44.58;;
69305;SDS011;56427;51.580;4.656;2023-02-10T08:53:57;568.83;;;70.40;;
69305;SDS011;56427;51.580;4.656;2023-02-10T08:56:22;383.08;;;57.28;;
69305;SDS011;56427;51.580;4.656;2023-02-10T08:58:48;390.87;;;59.33;;
69305;SDS011;56427;51.580;4.656;2023-02-10T09:01:16;259.30;;;49.38;;
69305;SDS011;56427;51.580;4.656;2023-02-10T09:03:43;492.63;;;61.47;;
69305;SDS011;56427;51.580;4.656;2023-02-10T09:06:15;427.75;;;59.33;;
69305;SDS011;56427;51.580;4.656;2023-02-10T09:08:43;351.67;;;56.27;;
69305;SDS011;56427;51.580;4.656;2023-02-10T09:11:12;288.42;;;52.47;;
69305;SDS011;56427;51.580;4.656;2023-02-10T09:13:38;300.20;;;51.92;;
69305;SDS011;56427;51.580;4.656;2023-02-10T09:16:03;286.33;;;52.13;;
69305;SDS011;56427;51.580;4.656;2023-02-10T09:18:28;285.80;;;55.00;;
69305;SDS011;56427;51.580;4.656;2023-02-10T09:20:56;313.73;;;57.20;;
69305;SDS011;56427;51.580;4.656;2023-02-10T09:23:22;514.33;;;70.90;;
69305;SDS011;56427;51.580;4.656;2023-02-10T09:25:58;355.10;;;58.63;;
69305;SDS011;56427;51.580;4.656;2023-02-10T09:28:24;335.33;;;55.20;;
69305;SDS011;56427;51.580;4.656;2023-02-10T09:30:50;357.05;;;58.90;;
69305;SDS011;56427;51.580;4.656;2023-02-10T09:33:15;291.40;;;53.73;;
69305;SDS011;56427;51.580;4.656;2023-02-10T09:35:41;250.15;;;51.47;;
69305;SDS011;56427;51.580;4.656;2023-02-10T09:38:10;313.63;;;58.83;;
69305;SDS011;56427;51.580;4.656;2023-02-10T09:40:48;278.35;;;53.70;;
69305;SDS011;56427;51.580;4.656;2023-02-10T09:54:25;227.18;;;52.00;;
69305;SDS011;56427;51.580;4.656;2023-02-10T09:56:56;269.33;;;58.97;;
69305;SDS011;56427;51.580;4.656;2023-02-10T09:59:22;252.90;;;54.78;;
69305;SDS011;56427;51.580;4.656;2023-02-10T10:01:52;211.07;;;54.35;;
69305;SDS011;56427;51.580;4.656;2023-02-10T10:04:22;168.77;;;50.03;;
69305;SDS011;56427;51.580;4.656;2023-02-10T10:06:50;152.88;;;44.78;;
69305;SDS011;56427;51.580;4.656;2023-02-10T10:12:09;180.70;;;49.47;;
69305;SDS011;56427;51.580;4.656;2023-02-10T10:14:39;161.93;;;48.47;;
69305;SDS011;56427;51.580;4.656;2023-02-10T10:17:10;163.50;;;47.83;;
69305;SDS011;56427;51.580;4.656;2023-02-10T10:19:58;150.50;;;46.97;;
69305;SDS011;56427;51.580;4.656;2023-02-10T10:29:14;134.52;;;45.28;;
69305;SDS011;56427;51.580;4.656;2023-02-10T10:31:48;114.07;;;41.72;;
69305;SDS011;56427;51.580;4.656;2023-02-10T10:34:23;107.53;;;39.35;;
69305;SDS011;56427;51.580;4.656;2023-02-10T10:36:54;116.57;;;41.10;;
69305;SDS011;56427;51.580;4.656;2023-02-10T10:39:30;105.32;;;39.33;;
69305;SDS011;56427;51.580;4.656;2023-02-10T10:42:21;111.55;;;42.33;;
69305;SDS011;56427;51.580;4.656;2023-02-10T10:44:48;106.05;;;40.55;;
69305;SDS011;56427;51.580;4.656;2023-02-10T10:47:18;104.28;;;41.85;;
69305;SDS011;56427;51.580;4.656;2023-02-10T10:49:55;112.88;;;41.25;;
69305;SDS011;56427;51.580;4.656;2023-02-10T10:52:28;119.00;;;42.47;;
69305;SDS011;56427;51.580;4.656;2023-02-10T10:55:05;125.25;;;44.88;;
69305;SDS011;56427;51.580;4.656;2023-02-10T10:57:37;120.95;;;42.53;;
69305;SDS011;56427;51.580;4.656;2023-02-10T11:00:18;116.07;;;43.60;;
69305;SDS011;56427;51.580;4.656;2023-02-10T11:03:00;107.82;;;44.67;;
69305;SDS011;56427;51.580;4.656;2023-02-10T11:05:36;122.93;;;44.25;;
69305;SDS011;56427;51.580;4.656;2023-02-10T11:08:03;127.35;;;47.60;;
69305;SDS011;56427;51.580;4.656;2023-02-10T11:10:53;122.88;;;47.00;;
69305;SDS011;56427;51.580;4.656;2023-02-10T11:13:22;142.48;;;51.00;;
69305;SDS011;56427;51.580;4.656;2023-02-10T11:16:00;136.93;;;48.15;;
69305;SDS011;56427;51.580;4.656;2023-02-10T11:18:29;144.25;;;51.05;;
69305;SDS011;56427;51.580;4.656;2023-02-10T11:20:59;128.85;;;48.85;;
69305;SDS011;56427;51.580;4.656;2023-02-10T11:23:27;152.65;;;52.88;;
69305;SDS011;56427;51.580;4.656;2023-02-10T11:25:58;138.88;;;49.92;;
69305;SDS011;56427;51.580;4.656;2023-02-10T11:28:27;125.18;;;47.53;;
69305;SDS011;56427;51.580;4.656;2023-02-10T11:30:55;131.07;;;49.08;;
69305;SDS011;56427;51.580;4.656;2023-02-10T11:33:26;136.27;;;50.70;;
69305;SDS011;56427;51.580;4.656;2023-02-10T11:35:59;112.70;;;46.85;;
69305;SDS011;56427;51.580;4.656;2023-02-10T11:38:28;126.03;;;47.75;;
69305;SDS011;56427;51.580;4.656;2023-02-10T11:40:55;102.15;;;43.03;;
69305;SDS011;56427;51.580;4.656;2023-02-10T11:43:35;105.30;;;42.85;;
69305;SDS011;56427;51.580;4.656;2023-02-10T11:46:22;104.10;;;43.50;;
69305;SDS011;56427;51.580;4.656;2023-02-10T11:51:24;108.88;;;45.65;;
69305;SDS011;56427;51.580;4.656;2023-02-10T11:53:50;94.90;;;40.42;;
69305;SDS011;56427;51.580;4.656;2023-02-10T11:56:18;96.27;;;41.90;;
69305;SDS011;56427;51.580;4.656;2023-02-10T11:59:27;99.28;;;42.53;;
69305;SDS011;56427;51.580;4.656;2023-02-10T12:02:14;98.53;;;42.55;;
69305;SDS011;56427;51.580;4.656;2023-02-10T12:10:26;92.47;;;40.50;;
69305;SDS011;56427;51.580;4.656;2023-02-10T12:26:30;98.97;;;45.50;;
69305;SDS011;56427;51.580;4.656;2023-02-10T12:37:46;88.05;;;38.45;;
69305;SDS011;56427;51.580;4.656;2023-02-10T12:40:37;90.18;;;37.35;;
69305;SDS011;56427;51.580;4.656;2023-02-10T12:51:34;76.53;;;32.40;;
69305;SDS011;56427;51.580;4.656;2023-02-10T12:54:19;74.55;;;31.08;;
69305;SDS011;56427;51.580;4.656;2023-02-10T12:56:51;75.13;;;31.85;;
69305;SDS011;56427;51.580;4.656;2023-02-10T12:59:24;77.10;;;32.20;;
69305;SDS011;56427;51.580;4.656;2023-02-10T13:01:57;72.47;;;30.30;;
69305;SDS011;56427;51.580;4.656;2023-02-10T13:04:32;73.38;;;31.38;;
69305;SDS011;56427;51.580;4.656;2023-02-10T13:12:28;72.78;;;30.60;;
69305;SDS011;56427;51.580;4.656;2023-02-10T13:15:04;69.97;;;30.50;;
69305;SDS011;56427;51.580;4.656;2023-02-10T13:17:44;74.90;;;32.22;;
69305;SDS011;56427;51.580;4.656;2023-02-10T13:23:04;73.13;;;28.92;;
69305;SDS011;56427;51.580;4.656;2023-02-10T13:28:22;73.80;;;30.75;;
69305;SDS011;56427;51.580;4.656;2023-02-10T13:31:14;74.63;;;31.60;;
69305;SDS011;56427;51.580;4.656;2023-02-10T13:34:01;72.97;;;30.05;;
69305;SDS011;56427;51.580;4.656;2023-02-10T13:36:36;74.70;;;31.63;;
69305;SDS011;56427;51.580;4.656;2023-02-10T13:39:04;69.47;;;28.90;;
69305;SDS011;56427;51.580;4.656;2023-02-10T13:41:40;70.90;;;30.35;;
69305;SDS011;56427;51.580;4.656;2023-02-10T13:44:29;74.63;;;31.73;;
69305;SDS011;56427;51.580;4.656;2023-02-10T13:49:47;66.68;;;31.27;;
69305;SDS011;56427;51.580;4.656;2023-02-10T13:52:26;75.85;;;31.63;;
69305;SDS011;56427;51.580;4.656;2023-02-10T13:54:57;75.15;;;32.53;;
69305;SDS011;56427;51.580;4.656;2023-02-10T13:57:56;71.53;;;31.50;;
69305;SDS011;56427;51.580;4.656;2023-02-10T14:00:26;65.95;;;30.73;;
69305;SDS011;56427;51.580;4.656;2023-02-10T14:03:01;70.13;;;31.85;;
69305;SDS011;56427;51.580;4.656;2023-02-10T14:05:54;68.90;;;32.03;;
69305;SDS011;56427;51.580;4.656;2023-02-10T14:10:57;59.88;;;28.35;;
69305;SDS011;56427;51.580;4.656;2023-02-10T14:13:25;64.25;;;30.52;;
69305;SDS011;56427;51.580;4.656;2023-02-10T14:15:55;61.92;;;28.73;;
69305;SDS011;56427;51.580;4.656;2023-02-10T14:18:22;58.75;;;29.10;;
69305;SDS011;56427;51.580;4.656;2023-02-10T14:23:24;61.72;;;29.88;;
69305;SDS011;56427;51.580;4.656;2023-02-10T14:26:01;61.40;;;30.43;;
69305;SDS011;56427;51.580;4.656;2023-02-10T14:28:33;64.43;;;30.90;;
69305;SDS011;56427;51.580;4.656;2023-02-10T14:31:03;61.13;;;29.50;;
69305;SDS011;56427;51.580;4.656;2023-02-10T14:33:41;55.40;;;27.40;;
69305;SDS011;56427;51.580;4.656;2023-02-10T14:36:15;60.30;;;27.10;;
69305;SDS011;56427;51.580;4.656;2023-02-10T14:38:42;59.90;;;28.52;;
69305;SDS011;56427;51.580;4.656;2023-02-10T14:41:12;51.90;;;27.95;;
69305;SDS011;56427;51.580;4.656;2023-02-10T14:43:38;54.97;;;26.52;;
69305;SDS011;56427;51.580;4.656;2023-02-10T14:46:04;51.70;;;27.20;;
69305;SDS011;56427;51.580;4.656;2023-02-10T14:48:30;48.93;;;24.50;;
69305;SDS011;56427;51.580;4.656;2023-02-10T14:51:00;48.60;;;24.85;;
69305;SDS011;56427;51.580;4.656;2023-02-10T14:53:26;56.60;;;25.98;;
69305;SDS011;56427;51.580;4.656;2023-02-10T14:55:56;50.80;;;25.00;;
69305;SDS011;56427;51.580;4.656;2023-02-10T14:58:23;48.00;;;24.77;;
69305;SDS011;56427;51.580;4.656;2023-02-10T15:01:11;51.17;;;25.30;;
69305;SDS011;56427;51.580;4.656;2023-02-10T15:03:51;49.28;;;23.52;;
69305;SDS011;56427;51.580;4.656;2023-02-10T15:06:19;50.47;;;23.98;;
69305;SDS011;56427;51.580;4.656;2023-02-10T15:08:58;45.90;;;23.83;;
69305;SDS011;56427;51.580;4.656;2023-02-10T15:11:30;44.25;;;22.67;;
69305;SDS011;56427;51.580;4.656;2023-02-10T15:14:22;45.53;;;23.17;;
69305;SDS011;56427;51.580;4.656;2023-02-10T15:16:50;44.58;;;23.23;;
69305;SDS011;56427;51.580;4.656;2023-02-10T15:19:17;43.90;;;23.20;;
69305;SDS011;56427;51.580;4.656;2023-02-10T15:21:43;41.83;;;21.13;;
69305;SDS011;56427;51.580;4.656;2023-02-10T15:24:20;46.67;;;23.15;;
69305;SDS011;56427;51.580;4.656;2023-02-10T15:26:53;42.00;;;22.25;;
69305;SDS011;56427;51.580;4.656;2023-02-10T15:29:19;43.72;;;21.27;;
69305;SDS011;56427;51.580;4.656;2023-02-10T15:31:52;40.60;;;20.33;;
69305;SDS011;56427;51.580;4.656;2023-02-10T15:34:29;44.65;;;21.10;;
69305;SDS011;56427;51.580;4.656;2023-02-10T15:37:03;43.17;;;21.52;;
69305;SDS011;56427;51.580;4.656;2023-02-10T15:41:59;43.58;;;21.60;;
69305;SDS011;56427;51.580;4.656;2023-02-10T15:44:38;47.00;;;20.58;;
69305;SDS011;56427;51.580;4.656;2023-02-10T15:49:40;43.60;;;20.40;;
69305;SDS011;56427;51.580;4.656;2023-02-10T15:52:13;43.17;;;20.55;;
69305;SDS011;56427;51.580;4.656;2023-02-10T15:54:42;41.90;;;21.40;;
69305;SDS011;56427;51.580;4.656;2023-02-10T15:57:11;48.83;;;21.70;;
69305;SDS011;56427;51.580;4.656;2023-02-10T15:59:38;44.95;;;21.98;;
69305;SDS011;56427;51.580;4.656;2023-02-10T16:02:04;44.13;;;22.27;;
69305;SDS011;56427;51.580;4.656;2023-02-10T16:04:33;43.97;;;21.98;;
69305;SDS011;56427;51.580;4.656;2023-02-10T16:06:59;45.53;;;22.17;;
69305;SDS011;56427;51.580;4.656;2023-02-10T16:09:26;44.38;;;21.40;;
69305;SDS011;56427;51.580;4.656;2023-02-10T16:11:52;42.67;;;22.88;;
69305;SDS011;56427;51.580;4.656;2023-02-10T16:14:17;47.73;;;21.43;;
69305;SDS011;56427;51.580;4.656;2023-02-10T16:16:44;43.47;;;21.83;;
69305;SDS011;56427;51.580;4.656;2023-02-10T16:19:13;44.45;;;22.55;;
69305;SDS011;56427;51.580;4.656;2023-02-10T16:21:39;48.10;;;23.02;;